Terminal Aerodrome Forecast
Issued by NWS Bismarck, ND

Home | Current Version | Previous Version | Graphics & Text | Print | Product List | Glossary On
Versions: 1 2 3 4 5 6 7 8 9 10 11 12 13 14 15 16 17
000
FTUS43 KBIS 241300 AAA
TAFBIS
TAF AMD
KBIS 241357Z 2414/2512 32007KT P6SM SCT012
     FM241500 33014KT P6SM SCT012 SCT040
     FM250000 28010KT P6SM BKN035 OVC080
     FM250300 30008KT P6SM BKN025 OVC035=

USA.gov is the U.S. government's official web portal to all federal, state and local government web resources and services.